createdAt,value
2022-09-22T00:03:39.517Z,86.87
2022-09-22T00:08:35.036Z,89.29
2022-09-22T00:13:27.015Z,92.61
2022-09-22T00:18:18.680Z,93.83
2022-09-22T00:23:10.437Z,94.59
2022-09-22T00:28:06.060Z,95.01
2022-09-22T00:32:57.860Z,95.73
2022-09-22T00:37:49.513Z,95.80
2022-09-22T00:42:41.517Z,96.75
2022-09-22T00:47:44.464Z,97.27
2022-09-22T00:52:48.693Z,96.92
2022-09-22T00:57:44.447Z,97.96
2022-09-22T01:02:36.248Z,98.87
2022-09-22T01:07:30.798Z,99.19
2022-09-22T01:40:30.381Z,100.00
2022-09-22T01:45:29.659Z,100.00
2022-09-22T01:50:30.374Z,100.00
2022-09-22T01:55:31.288Z,100.00
2022-09-22T02:00:23.859Z,100.00
2022-09-22T02:06:01.597Z,100.00
2022-09-22T02:10:58.693Z,97.97
2022-09-22T02:16:02.792Z,98.19
2022-09-22T02:20:54.529Z,98.82
2022-09-22T02:25:54.244Z,98.80
2022-09-22T02:36:12.471Z,100.00
2022-09-22T02:41:27.704Z,100.00
2022-09-22T02:46:43.499Z,100.00
2022-09-22T02:51:36.196Z,100.00
2022-09-22T02:56:28.263Z,100.00
2022-09-22T03:01:19.955Z,100.00
2022-09-22T03:06:15.680Z,100.00
2022-09-22T03:11:07.375Z,100.00
2022-09-22T03:15:59.074Z,100.00
2022-09-22T03:20:50.793Z,100.00
2022-09-22T03:25:42.637Z,100.00
2022-09-22T03:30:37.099Z,100.00
2022-09-22T03:35:29.333Z,100.00
2022-09-22T03:40:22.238Z,100.00
2022-09-22T03:45:14.945Z,100.00
2022-09-22T03:50:08.069Z,100.00
2022-09-22T03:54:59.951Z,100.00
2022-09-22T03:59:52.239Z,100.00
2022-09-22T04:14:57.941Z,100.00
2022-09-22T04:35:16.064Z,100.00
2022-09-22T05:06:26.616Z,100.00
2022-09-22T05:16:35.777Z,100.00
2022-09-22T05:52:03.310Z,94.59
2022-09-22T06:07:08.760Z,82.27
2022-09-22T06:37:52.678Z,79.99
2022-09-22T07:34:15.376Z,81.57
2022-09-22T08:36:02.220Z,75.67
2022-09-22T09:30:50.928Z,73.76
2022-09-22T10:02:33.697Z,74.35
2022-09-22T11:00:47.843Z,64.80
2022-09-22T17:33:39.613Z,63.22
2022-09-22T17:59:59.944Z,63.30
2022-09-22T18:04:57.109Z,64.30
2022-09-22T18:15:04.297Z,67.47
2022-09-22T18:19:58.979Z,67.86
2022-09-22T18:35:14.300Z,68.91
2022-09-22T18:40:11.064Z,69.05
2022-09-22T18:50:11.505Z,69.94
2022-09-22T18:55:05.588Z,70.86
2022-09-22T19:00:02.861Z,72.23
2022-09-22T19:04:55.618Z,75.05
2022-09-22T19:14:58.009Z,77.08
2022-09-22T19:19:51.516Z,79.95
2022-09-22T19:40:11.356Z,87.16
2022-09-22T19:45:04.978Z,88.36
2022-09-22T19:49:58.471Z,88.91
2022-09-22T19:54:50.568Z,90.31
2022-09-22T19:59:47.937Z,91.23
2022-09-22T20:04:40.485Z,91.33
2022-09-22T20:09:34.218Z,91.95
2022-09-22T20:14:29.309Z,92.42
2022-09-22T20:19:24.588Z,90.12
2022-09-22T20:24:20.307Z,89.70
2022-09-22T20:29:18.328Z,91.04
2022-09-22T20:34:19.387Z,93.41
2022-09-22T20:39:15.221Z,93.62
2022-09-22T20:44:12.660Z,95.35
2022-09-22T20:49:05.991Z,95.39
2022-09-22T20:59:06.573Z,96.45
2022-09-22T21:03:59.474Z,96.50
2022-09-22T21:09:10.579Z,96.97
2022-09-22T21:14:06.545Z,97.80
2022-09-22T21:19:03.875Z,97.53
2022-09-22T21:24:00.124Z,98.13
2022-09-22T21:28:52.728Z,97.84
2022-09-22T21:33:44.840Z,98.57
2022-09-22T21:38:39.466Z,98.50
2022-09-22T21:43:32.535Z,99.85
2022-09-22T21:48:25.385Z,99.89
2022-09-22T21:53:20.831Z,100.00
2022-09-22T21:58:12.569Z,100.00
2022-09-22T22:03:24.525Z,100.00
2022-09-22T22:13:22.486Z,100.00
2022-09-22T22:18:21.749Z,100.00
2022-09-22T22:23:14.451Z,100.00
2022-09-22T22:28:08.771Z,99.34
2022-09-22T22:33:00.452Z,99.85
2022-09-22T22:37:52.150Z,98.37
2022-09-22T22:42:44.181Z,97.97
2022-09-22T22:47:36.034Z,99.33
2022-09-22T22:52:28.212Z,99.96
2022-09-22T22:57:23.971Z,100.00
2022-09-22T23:02:16.006Z,100.00
2022-09-22T23:07:07.955Z,100.00
2022-09-22T23:11:59.781Z,100.00
2022-09-22T23:16:55.057Z,100.00
2022-09-22T23:21:47.177Z,100.00
2022-09-22T23:26:38.869Z,100.00
2022-09-22T23:31:31.435Z,100.00
2022-09-22T23:36:28.827Z,100.00
2022-09-22T23:56:53.682Z,100.00
